Time;durP1;ratioP1;P1;durP2;ratioP2;P2;SDS_P1;SDS_P2;PMS_P1;PMS_P2;Temp;Humidity;BMP_temperature;BMP_pressure;BME280_temperature;BME280_humidity;BME280_pressure;Samples;Min_cycle;Max_cycle;Signal;HPM_P1;HPM_P2
2022/03/17 00:00:47;;;;;;;22.02;17.42;;;10.30;99.90;;;;;;5070815;28;20044;-78
2022/03/17 00:03:13;;;;;;;21.98;17.58;;;9.80;99.90;;;;;;5053704;28;20047;-79
2022/03/17 00:05:38;;;;;;;21.90;17.52;;;10.40;99.90;;;;;;5070704;28;20040;-76
2022/03/17 00:08:04;;;;;;;24.75;17.40;;;10.50;99.90;;;;;;5052705;28;20157;-76
2022/03/17 00:10:30;;;;;;;21.05;16.23;;;11.40;99.90;;;;;;5071633;28;20123;-80
2022/03/17 00:12:56;;;;;;;19.30;16.05;;;10.20;99.90;;;;;;5053218;28;20059;-77
2022/03/17 00:15:21;;;;;;;22.48;16.50;;;10.40;99.90;;;;;;5069515;28;20045;-77
2022/03/17 00:17:47;;;;;;;26.55;17.13;;;10.20;99.90;;;;;;5070341;28;20479;-82
2022/03/17 00:20:14;;;;;;;23.90;18.02;;;10.10;99.90;;;;;;5070288;28;20033;-77
2022/03/17 00:22:40;;;;;;;20.83;17.40;;;11.80;99.90;;;;;;5069422;28;20527;-77
2022/03/17 00:25:07;;;;;;;23.45;18.40;;;10.20;99.90;;;;;;5053076;28;20040;-77
2022/03/17 00:27:33;;;;;;;27.55;18.40;;;10.20;99.90;;;;;;5037180;28;20037;-76
2022/03/17 00:29:59;;;;;;;21.73;17.33;;;10.20;99.90;;;;;;5051893;28;20088;-77
2022/03/17 00:32:25;;;;;;;23.33;18.23;;;10.20;99.90;;;;;;5070207;28;20071;-77
2022/03/17 00:37:36;;;;;;;21.85;17.63;;;11.80;99.90;;;;;;5069758;28;20487;-76
2022/03/17 00:40:03;;;;;;;27.67;18.50;;;10.20;99.90;;;;;;5069707;28;20072;-76
2022/03/17 00:42:28;;;;;;;24.95;18.27;;;10.30;99.90;;;;;;5069718;28;20043;-76
2022/03/17 00:44:54;;;;;;;27.33;18.38;;;10.20;99.90;;;;;;5068983;28;20052;-78
2022/03/17 00:47:21;;;;;;;22.38;17.17;;;10.20;99.90;;;;;;5053453;28;20517;-78
2022/03/17 00:49:47;;;;;;;23.40;18.52;;;11.50;99.90;;;;;;5070865;28;20036;-78
2022/03/17 00:52:14;;;;;;;24.67;18.60;;;10.60;99.90;;;;;;5069040;28;20090;-77
2022/03/17 00:54:41;;;;;;;24.67;19.02;;;9.70;99.90;;;;;;5071341;28;20384;-77
2022/03/17 00:57:08;;;;;;;23.02;18.73;;;10.20;99.90;;;;;;5043395;28;20029;-77
2022/03/17 00:59:35;;;;;;;23.30;19.63;;;11.90;99.90;;;;;;5069389;28;20434;-77
2022/03/17 01:02:04;;;;;;;21.10;17.45;;;11.70;99.90;;;;;;5069170;28;20110;-77
2022/03/17 01:04:30;;;;;;;23.23;18.13;;;9.60;99.90;;;;;;5069646;28;20062;-77
2022/03/17 01:06:55;;;;;;;23.85;18.45;;;10.00;99.90;;;;;;5069103;28;20044;-77
2022/03/17 01:09:21;;;;;;;24.02;19.35;;;11.10;99.90;;;;;;5069591;28;20438;-77
2022/03/17 01:11:47;;;;;;;26.10;18.20;;;11.60;99.90;;;;;;5051519;28;20037;-76
2022/03/17 01:14:13;;;;;;;23.83;18.00;;;11.00;99.90;;;;;;5069571;28;20041;-77
2022/03/17 01:16:40;;;;;;;26.08;19.00;;;10.20;99.90;;;;;;5069811;28;20033;-75
2022/03/17 01:19:06;;;;;;;21.40;18.60;;;10.20;99.90;;;;;;5068197;28;20041;-77
2022/03/17 01:21:31;;;;;;;23.85;19.52;;;10.00;99.90;;;;;;5052575;28;20028;-77
2022/03/17 01:23:57;;;;;;;25.27;19.25;;;11.60;99.90;;;;;;5068553;28;20125;-77
2022/03/17 01:26:23;;;;;;;24.92;18.83;;;9.80;99.90;;;;;;5052099;28;20040;-78
2022/03/17 01:28:48;;;;;;;22.95;17.45;;;10.30;99.90;;;;;;5068446;28;20057;-77
2022/03/17 01:31:14;;;;;;;24.75;19.40;;;9.90;99.90;;;;;;5051971;28;20045;-77
2022/03/17 01:33:39;;;;;;;23.75;18.95;;;10.20;99.90;;;;;;5068153;28;20077;-76
2022/03/17 01:36:06;;;;;;;22.33;18.67;;;10.00;99.90;;;;;;5068456;28;20424;-77
2022/03/17 01:38:31;;;;;;;23.50;19.50;;;10.30;99.90;;;;;;5052622;28;20087;-78
2022/03/17 01:40:58;;;;;;;25.80;18.67;;;11.80;99.90;;;;;;5068913;28;20447;-78
2022/03/17 01:43:24;;;;;;;22.63;19.40;;;9.60;99.90;;;;;;5052025;28;20067;-77
2022/03/17 01:45:52;;;;;;;21.05;18.45;;;10.30;99.90;;;;;;5051946;28;20105;-77
2022/03/17 01:48:19;;;;;;;24.85;20.00;;;9.70;99.90;;;;;;5051471;28;20090;-79
2022/03/17 01:50:45;;;;;;;25.30;19.35;;;10.40;99.90;;;;;;5068250;28;20043;-77
2022/03/17 01:53:11;;;;;;;24.05;19.00;;;10.40;99.90;;;;;;5067558;28;20036;-77
2022/03/17 01:55:37;;;;;;;24.10;19.60;;;10.40;99.90;;;;;;5052117;28;20595;-77
2022/03/17 01:58:03;;;;;;;25.48;19.48;;;10.40;99.90;;;;;;5067647;28;20059;-77
2022/03/17 02:00:29;;;;;;;24.08;19.50;;;10.40;99.90;;;;;;5051139;28;20036;-76
2022/03/17 02:02:54;;;;;;;21.05;17.75;;;12.20;99.90;;;;;;5051466;28;20543;-77
2022/03/17 02:05:20;;;;;;;20.40;18.17;;;10.20;99.90;;;;;;5052016;28;20040;-77
2022/03/17 02:07:51;;;;;;;23.23;19.10;;;11.30;99.90;;;;;;5068751;28;20500;-77
2022/03/17 02:10:18;;;;;;;24.70;19.98;;;11.90;99.90;;;;;;5067111;28;20146;-77
2022/03/17 02:15:28;;;;;;;25.77;19.77;;;10.40;99.90;;;;;;5062433;28;20480;-79
2022/03/17 02:17:55;;;;;;;30.23;20.38;;;10.40;99.90;;;;;;5050993;28;20055;-76
2022/03/17 02:20:24;;;;;;;24.17;19.90;;;10.40;99.90;;;;;;5069500;28;20488;-77
2022/03/17 02:22:51;;;;;;;24.00;20.60;;;10.10;99.90;;;;;;5067036;28;20524;-76
2022/03/17 02:25:34;;;;;;;25.65;20.23;;;10.20;99.90;;;;;;5067469;28;20477;-77
2022/03/17 02:28:02;;;;;;;23.85;20.65;;;10.30;99.90;;;;;;5067517;28;20399;-77
2022/03/17 02:30:30;;;;;;;25.65;21.20;;;10.60;99.90;;;;;;5067153;28;20499;-77
2022/03/17 02:33:03;;;;;;;25.80;20.55;;;12.10;99.90;;;;;;5067676;28;20055;-77
2022/03/17 02:35:30;;;;;;;26.50;20.42;;;10.20;99.90;;;;;;5067344;28;20048;-77
2022/03/17 02:37:58;;;;;;;24.38;20.20;;;9.90;99.90;;;;;;5068873;28;20053;-78
2022/03/17 02:40:25;;;;;;;25.40;19.65;;;10.30;99.90;;;;;;5050718;28;20048;-76
2022/03/17 02:42:52;;;;;;;26.65;20.55;;;10.20;99.90;;;;;;5050049;28;20048;-77
2022/03/17 02:45:18;;;;;;;26.80;22.10;;;10.30;99.90;;;;;;5067711;28;20071;-77
2022/03/17 02:47:44;;;;;;;27.20;20.80;;;12.00;99.90;;;;;;5050889;28;20051;-77
2022/03/17 02:50:11;;;;;;;26.05;21.17;;;9.40;99.90;;;;;;5066399;28;20044;-76
2022/03/17 02:52:37;;;;;;;23.83;20.13;;;10.70;99.90;;;;;;5051190;28;20143;-77
2022/03/17 02:55:03;;;;;;;27.27;21.50;;;10.60;99.90;;;;;;5050508;28;20051;-80
2022/03/17 02:57:29;;;;;;;26.50;20.42;;;10.30;99.90;;;;;;5050475;28;20109;-79
2022/03/17 02:59:58;;;;;;;27.55;21.85;;;12.10;99.90;;;;;;5066571;28;20055;-76
2022/03/17 03:02:24;;;;;;;27.17;20.63;;;10.50;99.90;;;;;;5050487;28;20044;-78
2022/03/17 03:04:50;;;;;;;27.63;21.00;;;10.30;99.90;;;;;;5066637;28;20065;-77
2022/03/17 03:07:16;;;;;;;24.67;20.85;;;10.30;99.90;;;;;;5067341;28;20483;-78
2022/03/17 03:09:42;;;;;;;28.00;21.08;;;11.70;99.90;;;;;;5067190;28;20036;-77
2022/03/17 03:12:08;;;;;;;26.48;20.50;;;11.50;99.90;;;;;;5065711;28;20420;-77
2022/03/17 03:14:33;;;;;;;26.67;21.80;;;10.30;99.90;;;;;;5050753;28;20053;-77
2022/03/17 03:16:59;;;;;;;27.85;21.85;;;10.10;99.90;;;;;;5050283;28;20143;-77
2022/03/17 03:19:25;;;;;;;25.65;20.60;;;10.30;99.90;;;;;;5066419;28;20470;-77
2022/03/17 03:21:51;;;;;;;24.60;20.67;;;10.30;99.90;;;;;;5049416;28;20452;-76
2022/03/17 03:24:16;;;;;;;24.67;20.88;;;10.30;99.90;;;;;;5066935;28;20404;-77
2022/03/17 03:26:43;;;;;;;27.42;21.23;;;11.70;99.90;;;;;;5050184;28;20536;-76
2022/03/17 03:29:23;;;;;;;24.33;21.15;;;10.30;99.90;;;;;;5050023;28;20059;-78
2022/03/17 03:31:53;;;;;;;26.23;22.13;;;10.20;99.90;;;;;;5049274;28;20098;-76
2022/03/17 03:34:20;;;;;;;27.90;23.40;;;12.00;99.90;;;;;;5059291;28;20040;-76
2022/03/17 03:39:31;;;;;;;27.08;22.45;;;12.20;99.90;;;;;;5060085;28;20457;-76
2022/03/17 03:41:57;;;;;;;25.17;21.80;;;10.50;99.90;;;;;;5066283;28;20506;-76
2022/03/17 03:44:22;;;;;;;25.33;22.05;;;10.10;99.90;;;;;;5050349;28;20040;-77
2022/03/17 03:46:48;;;;;;;29.63;22.70;;;12.00;99.90;;;;;;5066003;28;20548;-77
2022/03/17 03:49:18;;;;;;;27.90;22.95;;;10.10;99.90;;;;;;5059707;28;20045;-77
2022/03/17 03:51:44;;;;;;;28.17;23.33;;;10.10;99.90;;;;;;5049663;28;20106;-77
2022/03/17 03:54:13;;;;;;;29.42;23.77;;;10.30;99.90;;;;;;5066108;28;20045;-77
2022/03/17 03:56:47;;;;;;;26.73;23.67;;;10.30;99.90;;;;;;5068510;28;20044;-77
2022/03/17 03:59:21;;;;;;;32.88;25.42;;;10.40;99.90;;;;;;5049831;28;20044;-78
2022/03/17 04:01:49;;;;;;;31.35;25.20;;;11.90;99.90;;;;;;5065999;28;20041;-77
2022/03/17 04:04:19;;;;;;;31.40;25.90;;;10.20;99.90;;;;;;5049978;28;20040;-78
2022/03/17 04:06:47;;;;;;;30.17;26.05;;;10.80;99.90;;;;;;5066302;28;20051;-78
2022/03/17 04:09:14;;;;;;;29.40;24.98;;;10.20;99.90;;;;;;5066263;28;20037;-78
2022/03/17 04:11:41;;;;;;;35.65;27.00;;;10.00;99.90;;;;;;5050305;28;20086;-78
2022/03/17 04:14:08;;;;;;;33.72;28.40;;;9.80;99.90;;;;;;5065485;28;20094;-79
2022/03/17 04:16:34;;;;;;;36.72;29.35;;;11.40;99.90;;;;;;5050160;28;20040;-79
2022/03/17 04:19:00;;;;;;;33.92;29.38;;;9.90;99.90;;;;;;5033032;28;20040;-80
2022/03/17 04:21:26;;;;;;;35.80;29.70;;;9.80;99.90;;;;;;5049033;28;20433;-80
2022/03/17 04:23:51;;;;;;;37.03;30.95;;;9.50;99.90;;;;;;5049658;28;20044;-80
2022/03/17 04:26:17;;;;;;;42.13;32.75;;;11.40;99.90;;;;;;5041147;28;20036;-80
2022/03/17 04:28:46;;;;;;;39.08;30.35;;;10.90;99.90;;;;;;5049418;28;20045;-79
2022/03/17 04:31:12;;;;;;;40.65;32.03;;;9.80;99.90;;;;;;5067345;28;20396;-80
2022/03/17 04:33:37;;;;;;;37.10;32.10;;;9.70;99.90;;;;;;5051565;28;20044;-79
2022/03/17 04:36:05;;;;;;;41.03;33.92;;;9.70;99.90;;;;;;5052093;28;20063;-80
2022/03/17 04:38:32;;;;;;;38.13;32.80;;;9.60;99.90;;;;;;5070077;28;20438;-80
2022/03/17 04:40:58;;;;;;;42.75;34.83;;;9.70;99.90;;;;;;5069017;28;20036;-83
2022/03/17 04:43:25;;;;;;;38.67;32.97;;;9.60;99.90;;;;;;5069390;28;20491;-80
2022/03/17 04:45:51;;;;;;;39.50;33.53;;;9.60;99.90;;;;;;5070189;28;20298;-82
2022/03/17 04:48:17;;;;;;;43.78;34.28;;;9.50;99.90;;;;;;5070982;28;20082;-81
2022/03/17 04:50:43;;;;;;;44.28;36.05;;;9.00;99.90;;;;;;5070697;28;20127;-82
2022/03/17 04:53:27;;;;;;;43.85;34.03;;;9.60;99.90;;;;;;5070551;28;20038;-82
2022/03/17 04:55:54;;;;;;;41.33;33.92;;;9.50;99.90;;;;;;5070752;28;20059;-81
2022/03/17 04:58:20;;;;;;;46.75;34.05;;;9.50;99.90;;;;;;5062053;28;20051;-81
2022/03/17 05:00:46;;;;;;;43.85;32.78;;;9.40;99.90;;;;;;5078272;28;20080;-81
2022/03/17 05:03:12;;;;;;;30.35;22.65;;;9.40;99.90;;;;;;5052273;28;20041;-82
2022/03/17 05:05:38;;;;;;;9.15;7.18;;;9.40;99.90;;;;;;5070225;28;20090;-82
2022/03/17 05:08:05;;;;;;;8.57;7.57;;;9.40;99.90;;;;;;5068892;28;20504;-81
2022/03/17 05:10:33;;;;;;;8.63;7.55;;;9.20;99.90;;;;;;5051854;28;20036;-81
2022/03/17 05:12:59;;;;;;;9.32;7.88;;;9.00;99.90;;;;;;5070378;28;20042;-81
2022/03/17 05:15:25;;;;;;;10.40;8.07;;;8.80;99.90;;;;;;5070751;28;20070;-82
2022/03/17 05:17:51;;;;;;;6.05;5.45;;;9.50;99.90;;;;;;5069978;28;20527;-82
2022/03/17 05:20:22;;;;;;;7.45;6.75;;;8.60;99.90;;;;;;5069530;28;20098;-82
2022/03/17 05:22:48;;;;;;;7.57;5.43;;;8.50;99.90;;;;;;5070520;28;20431;-81
2022/03/17 05:25:14;;;;;;;7.30;6.57;;;8.40;99.90;;;;;;5070143;28;20079;-82
2022/03/17 05:27:44;;;;;;;7.63;5.28;;;8.30;99.90;;;;;;5071078;28;20439;-81
2022/03/17 05:30:13;;;;;;;4.68;4.28;;;8.30;99.90;;;;;;5068688;28;20452;-81
2022/03/17 05:32:39;;;;;;;7.45;4.60;;;8.20;99.90;;;;;;5035640;28;20049;-81
2022/03/17 05:35:06;;;;;;;7.72;5.60;;;8.20;99.90;;;;;;5070211;28;20071;-81
2022/03/17 05:37:31;;;;;;;8.32;6.68;;;8.20;99.90;;;;;;5070491;28;20086;-81
2022/03/17 05:39:57;;;;;;;12.00;7.28;;;8.00;99.90;;;;;;5067636;28;20482;-81
2022/03/17 05:42:22;;;;;;;14.23;7.90;;;8.00;99.90;;;;;;5052449;28;20059;-81
2022/03/17 05:44:48;;;;;;;16.58;8.45;;;8.00;99.90;;;;;;5068677;28;20481;-81
2022/03/17 05:47:13;;;;;;;15.70;9.18;;;8.00;99.90;;;;;;5051511;28;20036;-81
2022/03/17 05:49:39;;;;;;;14.98;10.05;;;7.90;99.90;;;;;;5052054;28;20041;-80
2022/03/17 05:52:06;;;;;;;21.23;8.70;;;8.30;99.90;;;;;;5068035;28;20083;-81
2022/03/17 05:54:32;;;;;;;15.70;9.80;;;7.90;99.90;;;;;;5051617;28;20509;-81
2022/03/17 05:56:58;;;;;;;18.77;8.90;;;7.80;99.90;;;;;;5068400;28;20075;-80
2022/03/17 05:59:24;;;;;;;17.02;9.48;;;7.90;99.90;;;;;;5068102;28;20472;-80
2022/03/17 06:01:49;;;;;;;17.98;8.73;;;7.80;99.90;;;;;;5068232;28;20366;-81
2022/03/17 06:04:15;;;;;;;20.75;9.25;;;7.80;99.90;;;;;;5069827;28;20076;-80
2022/03/17 06:06:40;;;;;;;16.67;9.63;;;7.80;99.90;;;;;;5069616;28;20044;-81
2022/03/17 06:09:06;;;;;;;18.02;8.45;;;9.50;99.90;;;;;;5068062;28;20105;-80
2022/03/17 06:11:32;;;;;;;18.15;7.10;;;7.70;99.90;;;;;;5068400;28;20043;-80
2022/03/17 06:13:59;;;;;;;15.52;6.40;;;7.70;99.90;;;;;;5067516;28;20131;-80
2022/03/17 06:16:25;;;;;;;18.90;6.18;;;7.70;99.90;;;;;;5061440;28;20036;-80
2022/03/17 06:18:50;;;;;;;14.52;3.63;;;7.70;99.90;;;;;;5068282;28;20114;-80
2022/03/17 06:21:16;;;;;;;15.15;4.50;;;7.70;99.90;;;;;;5068299;28;20044;-80
2022/03/17 06:23:43;;;;;;;19.27;5.22;;;7.60;99.90;;;;;;5068386;28;20468;-80
2022/03/17 06:26:09;;;;;;;17.95;3.40;;;7.60;99.90;;;;;;5035003;28;20044;-81
2022/03/17 06:28:34;;;;;;;14.77;4.50;;;7.70;99.90;;;;;;5067425;28;20082;-80
2022/03/17 06:31:01;;;;;;;13.90;3.40;;;7.60;99.90;;;;;;5067323;28;20137;-80
2022/03/17 06:33:29;;;;;;;15.32;4.28;;;7.60;99.90;;;;;;5059882;28;20435;-79
2022/03/17 06:35:55;;;;;;;20.60;4.53;;;7.60;99.90;;;;;;5068127;28;20519;-80
2022/03/17 06:38:21;;;;;;;14.05;3.47;;;7.50;99.90;;;;;;5067654;28;20080;-80
2022/03/17 06:40:47;;;;;;;8.90;2.80;;;7.50;99.90;;;;;;5050650;28;20541;-80
2022/03/17 06:43:14;;;;;;;8.82;2.47;;;7.50;99.90;;;;;;5067128;28;20154;-79
2022/03/17 06:45:40;;;;;;;12.60;2.97;;;7.60;99.90;;;;;;5068050;28;20404;-79
2022/03/17 06:48:06;;;;;;;9.40;1.73;;;7.50;99.90;;;;;;5068854;28;20079;-80
2022/03/17 06:50:32;;;;;;;12.75;2.42;;;7.50;99.90;;;;;;5068142;28;20391;-81
2022/03/17 06:52:57;;;;;;;8.70;1.45;;;7.40;99.90;;;;;;5054413;28;20090;-79
2022/03/17 06:55:23;;;;;;;11.75;2.17;;;7.50;99.90;;;;;;5073604;28;20037;-79
2022/03/17 06:57:49;;;;;;;5.63;2.15;;;7.50;99.90;;;;;;5066759;28;20119;-80
2022/03/17 07:00:17;;;;;;;6.15;1.77;;;8.00;99.90;;;;;;5067027;28;20044;-79
2022/03/17 07:02:43;;;;;;;8.43;1.90;;;7.40;99.90;;;;;;5068375;28;20041;-80
2022/03/17 07:05:09;;;;;;;11.10;1.52;;;7.70;99.90;;;;;;5068600;28;20400;-82
2022/03/17 07:07:35;;;;;;;9.45;1.83;;;7.30;99.90;;;;;;5067191;28;20486;-81
2022/03/17 07:10:01;;;;;;;12.98;2.17;;;7.30;99.90;;;;;;5067443;28;20105;-79
2022/03/17 07:12:27;;;;;;;8.52;2.08;;;7.30;99.90;;;;;;5068384;28;20075;-80
2022/03/17 07:14:53;;;;;;;12.70;2.28;;;7.30;99.90;;;;;;5068521;28;20169;-80
2022/03/17 07:17:20;;;;;;;11.88;1.92;;;7.30;99.90;;;;;;5066246;28;20041;-79
2022/03/17 07:22:26;;;;;;;13.02;1.98;;;7.30;99.90;;;;;;5068477;28;20127;-79
2022/03/17 07:24:53;;;;;;;11.30;2.20;;;7.20;99.90;;;;;;5066733;28;20052;-79
2022/03/17 07:27:21;;;;;;;10.68;2.05;;;7.20;99.90;;;;;;5067210;28;20163;-79
2022/03/17 07:29:47;;;;;;;17.60;2.28;;;7.20;99.90;;;;;;5066551;28;20261;-79
2022/03/17 07:32:13;;;;;;;13.30;2.30;;;7.30;99.90;;;;;;5065909;28;20135;-79
2022/03/17 07:34:38;;;;;;;12.15;1.83;;;7.30;99.90;;;;;;5050626;28;20162;-80
2022/03/17 07:37:04;;;;;;;10.00;1.42;;;7.40;99.90;;;;;;5068128;28;20045;-80
2022/03/17 07:39:30;;;;;;;12.00;1.88;;;7.30;99.90;;;;;;5066356;28;20044;-82
2022/03/17 07:41:55;;;;;;;14.35;2.00;;;7.30;99.90;;;;;;5067592;28;20059;-79
2022/03/17 07:44:21;;;;;;;8.70;1.50;;;7.20;99.90;;;;;;5068526;28;20492;-79
2022/03/17 07:46:48;;;;;;;12.95;1.95;;;7.20;99.90;;;;;;5067421;28;20040;-82
2022/03/17 07:49:14;;;;;;;8.88;1.50;;;7.20;99.90;;;;;;5068139;28;20071;-81
2022/03/17 07:51:40;;;;;;;15.00;1.73;;;7.20;99.90;;;;;;5068316;28;20044;-79
2022/03/17 07:54:07;;;;;;;10.43;1.98;;;7.20;99.90;;;;;;5067363;28;20048;-79
2022/03/17 07:56:33;;;;;;;14.60;1.77;;;7.30;99.90;;;;;;5067355;28;20037;-79
2022/03/17 07:58:59;;;;;;;13.15;1.52;;;7.20;99.90;;;;;;5065523;28;20352;-79
2022/03/17 08:01:26;;;;;;;11.80;1.80;;;7.20;99.90;;;;;;5066817;28;20097;-79
2022/03/17 08:03:54;;;;;;;8.65;1.55;;;7.20;99.90;;;;;;5066794;28;20071;-82
2022/03/17 08:06:22;;;;;;;9.57;1.75;;;7.20;99.90;;;;;;5066219;28;20365;-80
2022/03/17 08:08:47;;;;;;;11.00;1.80;;;7.20;99.90;;;;;;5071632;28;20037;-81
2022/03/17 08:11:13;;;;;;;10.27;1.67;;;7.20;99.90;;;;;;5071662;28;20094;-79
2022/03/17 08:13:41;;;;;;;14.13;2.38;;;7.20;99.90;;;;;;5070285;28;20037;-80
2022/03/17 08:16:06;;;;;;;13.93;1.67;;;7.20;99.90;;;;;;5071332;28;20072;-79
2022/03/17 08:18:34;;;;;;;11.43;2.45;;;8.80;99.90;;;;;;5072077;28;20095;-79
2022/03/17 08:21:00;;;;;;;20.70;2.17;;;7.20;99.90;;;;;;5052528;28;20064;-79
2022/03/17 08:23:25;;;;;;;15.05;1.90;;;7.20;99.90;;;;;;5070701;28;20074;-80
2022/03/17 08:25:51;;;;;;;19.05;2.85;;;7.20;99.90;;;;;;5037095;28;20494;-79
2022/03/17 08:28:17;;;;;;;9.27;1.77;;;7.20;99.90;;;;;;5052803;28;20056;-79
2022/03/17 08:30:46;;;;;;;21.80;2.80;;;7.20;99.90;;;;;;5070151;28;20527;-80
2022/03/17 08:33:15;;;;;;;18.65;2.15;;;7.00;99.90;;;;;;5070497;28;20048;-79
2022/03/17 08:35:42;;;;;;;14.70;1.85;;;7.30;99.90;;;;;;5062094;28;20086;-79
2022/03/17 08:38:07;;;;;;;8.70;2.17;;;7.20;99.90;;;;;;5071125;28;20049;-79
2022/03/17 08:40:34;;;;;;;4.97;1.20;;;7.10;99.90;;;;;;5053047;28;20052;-79
2022/03/17 08:42:59;;;;;;;6.90;1.35;;;7.20;99.90;;;;;;5052355;28;20037;-79
2022/03/17 08:51:01;;;;;;;14.18;1.80;;;7.10;99.90;;;;;;5056340;28;20143;-78
2022/03/17 08:53:27;;;;;;;18.70;2.38;;;6.60;99.90;;;;;;5070118;28;20123;-79
2022/03/17 08:55:52;;;;;;;14.20;2.00;;;7.20;99.90;;;;;;5069031;28;20045;-79
2022/03/17 08:58:18;;;;;;;19.08;2.38;;;6.60;99.90;;;;;;5069477;28;20102;-78
2022/03/17 09:00:44;;;;;;;14.93;1.95;;;7.00;99.90;;;;;;5069206;28;20075;-77
2022/03/17 09:03:10;;;;;;;11.77;1.50;;;6.40;99.90;;;;;;5070189;28;20036;-78
2022/03/17 09:05:39;;;;;;;10.85;1.83;;;6.70;99.90;;;;;;5069821;28;20064;-79
2022/03/17 09:08:08;;;;;;;16.38;1.85;;;7.20;99.90;;;;;;5069488;28;20040;-79
2022/03/17 09:10:35;;;;;;;10.60;1.42;;;7.40;99.90;;;;;;5069585;28;20478;-78
2022/03/17 09:13:07;;;;;;;9.20;1.40;;;8.70;99.90;;;;;;5070065;28;20132;-78
2022/03/17 09:15:34;;;;;;;17.38;2.58;;;7.30;99.90;;;;;;5036994;28;20045;-79
2022/03/17 09:17:59;;;;;;;12.45;2.03;;;7.10;99.90;;;;;;5051110;28;20044;-78
2022/03/17 09:20:25;;;;;;;18.08;2.65;;;6.90;99.90;;;;;;5069862;28;20106;-81
2022/03/17 09:22:50;;;;;;;13.40;2.83;;;8.40;99.90;;;;;;5052581;28;20052;-79
2022/03/17 09:25:23;;;;;;;11.63;2.55;;;7.20;99.90;;;;;;5051808;28;20098;-79
2022/03/17 09:27:52;;;;;;;15.77;2.75;;;8.90;99.90;;;;;;5052495;28;20511;-80
2022/03/17 09:30:20;;;;;;;13.23;2.28;;;8.70;99.90;;;;;;5051420;28;20107;-78
2022/03/17 09:32:45;;;;;;;16.88;2.38;;;6.80;99.90;;;;;;5061207;28;20052;-78
2022/03/17 09:35:12;;;;;;;14.70;2.42;;;6.90;99.90;;;;;;5070249;28;20037;-78
2022/03/17 09:37:38;;;;;;;12.13;2.55;;;6.90;99.90;;;;;;5069663;28;20219;-78
2022/03/17 09:40:06;;;;;;;14.70;4.22;;;7.20;99.90;;;;;;5068361;28;20055;-79
2022/03/17 09:42:32;;;;;;;8.98;1.75;;;7.70;99.90;;;;;;5069156;28;20392;-78
2022/03/17 09:44:57;;;;;;;16.58;2.60;;;7.70;99.90;;;;;;5067135;28;20056;-81
2022/03/17 09:47:27;;;;;;;8.93;1.70;;;9.30;99.90;;;;;;5052112;28;20048;-78
2022/03/17 09:49:54;;;;;;;16.50;3.33;;;8.70;99.90;;;;;;5065957;28;20095;-82
2022/03/17 09:52:23;;;;;;;13.40;1.65;;;7.70;99.90;;;;;;5064547;28;20045;-83
2022/03/17 09:54:51;;;;;;;13.15;2.25;;;9.70;99.90;;;;;;5052094;28;20197;-78
2022/03/17 09:57:17;;;;;;;15.93;3.13;;;9.50;99.90;;;;;;5068650;28;20055;-77
2022/03/17 09:59:52;;;;;;;13.27;2.50;;;7.50;99.90;;;;;;5069215;28;20055;-79
2022/03/17 10:02:18;;;;;;;12.63;2.08;;;9.90;99.90;;;;;;5068558;28;20040;-79
2022/03/17 10:04:46;;;;;;;15.38;1.50;;;9.10;99.90;;;;;;5051710;28;20097;-77
2022/03/17 10:07:12;;;;;;;11.38;1.67;;;8.00;99.90;;;;;;5051255;28;20036;-79
2022/03/17 10:09:38;;;;;;;11.60;2.10;;;8.00;99.90;;;;;;5051637;28;20511;-78
2022/03/17 10:12:09;;;;;;;10.82;1.27;;;8.20;99.90;;;;;;5068944;28;20519;-78
2022/03/17 10:14:40;;;;;;;10.30;2.22;;;8.40;99.90;;;;;;5051002;28;20037;-79
2022/03/17 10:17:28;;;;;;;16.48;1.70;;;7.90;99.90;;;;;;5067803;28;20047;-80
2022/03/17 10:20:15;;;;;;;17.48;1.98;;;10.40;99.90;;;;;;5059025;28;20500;-79
2022/03/17 10:23:01;;;;;;;6.32;1.30;;;8.70;99.90;;;;;;5068097;28;20049;-78
2022/03/17 10:25:31;;;;;;;11.60;2.25;;;10.20;99.90;;;;;;5051618;28;20127;-78
2022/03/17 10:28:01;;;;;;;16.70;2.08;;;8.30;99.90;;;;;;5034432;28;20545;-81
2022/03/17 10:30:36;;;;;;;14.20;1.83;;;10.30;99.90;;;;;;5068148;28;20059;-78
2022/03/17 10:33:14;;;;;;;13.43;1.63;;;8.80;99.90;;;;;;5069469;28;20389;-78
2022/03/17 10:35:45;;;;;;;15.30;1.92;;;8.80;99.90;;;;;;5067407;28;20523;-80
2022/03/17 10:38:15;;;;;;;9.55;1.60;;;8.30;99.90;;;;;;5051032;28;20036;-79
2022/03/17 10:40:41;;;;;;;10.10;1.90;;;8.90;99.90;;;;;;5068467;28;20041;-78
2022/03/17 10:43:24;;;;;;;16.08;2.67;;;8.40;99.90;;;;;;5068445;28;20048;-78
2022/03/17 10:46:11;;;;;;;16.45;1.83;;;10.20;99.90;;;;;;5068451;28;20062;-79
2022/03/17 10:49:07;;;;;;;8.02;1.20;;;9.10;99.90;;;;;;5034823;28;20442;-78
2022/03/17 10:51:41;;;;;;;15.45;2.00;;;10.70;99.90;;;;;;5054728;28;20052;-82
2022/03/17 10:54:10;;;;;;;14.40;2.08;;;8.70;99.90;;;;;;5067004;28;20420;-79
2022/03/17 10:56:39;;;;;;;15.95;2.05;;;9.20;99.90;;;;;;5050312;28;20044;-80
2022/03/17 10:59:07;;;;;;;13.65;3.08;;;9.20;99.90;;;;;;5067785;28;20556;-80
2022/03/17 11:01:42;;;;;;;9.77;1.65;;;11.10;99.90;;;;;;5051075;28;20119;-79
2022/03/17 11:04:09;;;;;;;12.23;2.58;;;8.50;99.90;;;;;;5066799;28;20044;-79
2022/03/17 11:06:35;;;;;;;9.77;2.15;;;8.70;99.90;;;;;;5051041;28;20028;-82
2022/03/17 11:09:01;;;;;;;14.48;2.40;;;9.00;99.90;;;;;;5066127;28;20067;-80
2022/03/17 11:11:28;;;;;;;13.45;1.88;;;9.00;99.90;;;;;;5033907;28;20583;-79
2022/03/17 11:13:56;;;;;;;21.83;3.22;;;9.10;99.90;;;;;;5067189;28;20032;-79
2022/03/17 11:16:29;;;;;;;12.93;1.85;;;9.20;99.90;;;;;;5033650;28;20028;-80
2022/03/17 11:18:55;;;;;;;14.90;1.77;;;8.80;99.90;;;;;;5034293;28;20492;-78
2022/03/17 11:21:31;;;;;;;14.55;1.90;;;9.30;99.90;;;;;;5050161;28;20089;-78
2022/03/17 11:24:06;;;;;;;11.50;1.42;;;9.40;99.90;;;;;;5042276;28;20037;-78
2022/03/17 11:26:39;;;;;;;10.13;1.67;;;9.40;99.90;;;;;;5034549;28;20044;-78
2022/03/17 11:29:17;;;;;;;13.40;2.05;;;9.30;99.90;;;;;;5060729;28;20515;-80
2022/03/17 11:31:57;;;;;;;10.93;1.65;;;9.20;99.90;;;;;;5034844;28;20468;-76
2022/03/17 11:34:41;;;;;;;16.27;2.53;;;9.20;99.90;;;;;;5068695;28;20052;-77
2022/03/17 11:37:19;;;;;;;13.15;2.35;;;8.80;99.90;;;;;;5042194;28;20067;-78
2022/03/17 11:39:58;;;;;;;12.80;1.77;;;8.80;99.90;;;;;;5049380;28;20177;-78
2022/03/17 11:42:38;;;;;;;14.48;2.17;;;9.50;99.90;;;;;;5054101;28;20047;-78
2022/03/17 11:45:14;;;;;;;6.50;1.88;;;9.70;99.90;;;;;;5064718;28;20066;-78
2022/03/17 11:47:45;;;;;;;11.20;1.65;;;9.80;99.90;;;;;;5074816;28;20392;-77
2022/03/17 11:50:40;;;;;;;11.80;2.10;;;9.90;99.90;;;;;;5074253;28;20115;-78
2022/03/17 11:53:20;;;;;;;12.20;2.00;;;9.90;99.90;;;;;;5065094;28;20040;-78
2022/03/17 11:55:46;;;;;;;7.50;1.65;;;9.90;99.90;;;;;;5073738;28;20113;-82
2022/03/17 11:58:37;;;;;;;12.75;1.45;;;9.70;99.90;;;;;;5073913;28;20364;-78
2022/03/17 12:01:04;;;;;;;11.57;1.35;;;10.00;99.90;;;;;;5064988;28;20081;-82
2022/03/17 12:03:39;;;;;;;11.38;1.67;;;9.80;99.90;;;;;;5073642;28;20044;-78
2022/03/17 12:06:13;;;;;;;13.15;3.60;;;11.90;99.90;;;;;;5064728;28;20071;-78
2022/03/17 12:08:45;;;;;;;;;;;10.10;99.90;;;;;;5073707;28;20124;-78
2022/03/17 12:11:15;;;;;;;12.35;2.15;;;10.10;99.90;;;;;;5072708;28;19924;-78
2022/03/17 12:13:42;;;;;;;11.50;1.20;;;9.50;99.90;;;;;;5072061;28;20056;-78
2022/03/17 12:16:11;;;;;;;14.07;1.85;;;9.80;99.90;;;;;;5056445;28;20045;-79
2022/03/17 12:19:02;;;;;;;8.73;1.50;;;9.90;99.90;;;;;;5039541;28;20040;-79
2022/03/17 12:22:04;;;;;;;9.30;1.50;;;10.60;99.90;;;;;;5050989;28;20450;-79
2022/03/17 12:24:47;;;;;;;7.10;1.80;;;10.50;99.90;;;;;;5052098;28;20082;-79
2022/03/17 12:27:34;;;;;;;8.23;2.13;;;10.60;99.90;;;;;;5065475;28;20036;-79
2022/03/17 12:30:06;;;;;;;11.35;2.17;;;10.70;99.90;;;;;;5072225;28;20353;-79
2022/03/17 12:32:38;;;;;;;7.85;2.15;;;10.60;99.90;;;;;;5072470;28;20430;-76
2022/03/17 12:35:09;;;;;;;10.93;1.48;;;12.60;99.90;;;;;;5074022;28;20045;-77
2022/03/17 12:37:38;;;;;;;10.73;1.63;;;10.70;99.90;;;;;;5057109;28;20083;-77
2022/03/17 12:40:06;;;;;;;12.55;1.63;;;12.20;99.90;;;;;;5073164;28;20044;-77
2022/03/17 12:42:47;;;;;;;11.05;2.03;;;10.90;99.30;;;;;;5040109;28;20032;-78
2022/03/17 12:45:15;;;;;;;7.32;2.08;;;10.90;99.80;;;;;;5049272;28;20040;-78
2022/03/17 12:47:43;;;;;;;11.80;1.63;;;10.50;99.90;;;;;;5072757;28;20040;-77
2022/03/17 12:50:10;;;;;;;11.00;1.35;;;12.40;98.60;;;;;;5081743;28;20064;-78
2022/03/17 12:52:39;;;;;;;9.70;1.20;;;12.50;99.10;;;;;;5072487;28;20328;-78
2022/03/17 12:55:09;;;;;;;10.90;1.77;;;13.10;99.20;;;;;;5068314;28;20119;-78
2022/03/17 12:57:37;;;;;;;9.82;1.65;;;11.40;97.40;;;;;;5069639;28;20055;-78
2022/03/17 13:00:04;;;;;;;11.95;2.10;;;11.30;95.30;;;;;;5051612;28;20429;-78
2022/03/17 13:02:30;;;;;;;10.02;1.55;;;11.20;96.60;;;;;;5052961;28;20115;-78